sensor_id;sensor_type;location;lat;lon;timestamp;temperature;humidity
19168;DHT22;9716;53.114;18.040;2022-08-01T00:01:32;14.80;99.90
19168;DHT22;9716;53.114;18.040;2022-08-01T00:04:01;14.80;99.90
19168;DHT22;9716;53.114;18.040;2022-08-01T00:06:29;14.80;99.90
19168;DHT22;9716;53.114;18.040;2022-08-01T00:09:00;14.70;99.90
19168;DHT22;9716;53.114;18.040;2022-08-01T00:11:28;14.70;99.90
19168;DHT22;9716;53.114;18.040;2022-08-01T00:13:57;14.70;99.90
19168;DHT22;9716;53.114;18.040;2022-08-01T00:16:26;14.70;99.90
19168;DHT22;9716;53.114;18.040;2022-08-01T00:18:55;14.70;99.90
19168;DHT22;9716;53.114;18.040;2022-08-01T00:21:24;14.60;99.90
19168;DHT22;9716;53.114;18.040;2022-08-01T00:23:52;14.60;99.90
19168;DHT22;9716;53.114;18.040;2022-08-01T00:26:23;14.60;99.90
19168;DHT22;9716;53.114;18.040;2022-08-01T00:28:51;14.60;99.90
19168;DHT22;9716;53.114;18.040;2022-08-01T00:31:20;14.60;99.90
19168;DHT22;9716;53.114;18.040;2022-08-01T00:33:49;14.50;99.90
19168;DHT22;9716;53.114;18.040;2022-08-01T00:36:17;14.50;99.90
19168;DHT22;9716;53.114;18.040;2022-08-01T00:38:46;14.50;99.90
19168;DHT22;9716;53.114;18.040;2022-08-01T00:41:15;14.50;99.90
19168;DHT22;9716;53.114;18.040;2022-08-01T00:43:45;14.50;99.90
19168;DHT22;9716;53.114;18.040;2022-08-01T00:46:14;14.50;99.90
19168;DHT22;9716;53.114;18.040;2022-08-01T00:48:43;14.50;99.90
19168;DHT22;9716;53.114;18.040;2022-08-01T00:51:11;14.50;99.90
19168;DHT22;9716;53.114;18.040;2022-08-01T00:53:41;14.50;99.90
19168;DHT22;9716;53.114;18.040;2022-08-01T00:56:19;14.40;99.90
19168;DHT22;9716;53.114;18.040;2022-08-01T00:58:50;14.40;99.90
19168;DHT22;9716;53.114;18.040;2022-08-01T01:01:19;14.40;99.90
19168;DHT22;9716;53.114;18.040;2022-08-01T01:03:49;14.40;99.90
19168;DHT22;9716;53.114;18.040;2022-08-01T01:06:35;14.40;99.90
19168;DHT22;9716;53.114;18.040;2022-08-01T01:09:21;14.40;99.90
19168;DHT22;9716;53.114;18.040;2022-08-01T01:12:01;14.40;99.90
19168;DHT22;9716;53.114;18.040;2022-08-01T01:14:36;14.30;99.90
19168;DHT22;9716;53.114;18.040;2022-08-01T01:17:12;14.30;99.90
19168;DHT22;9716;53.114;18.040;2022-08-01T01:20:00;14.30;99.90
19168;DHT22;9716;53.114;18.040;2022-08-01T01:22:47;14.30;99.90
19168;DHT22;9716;53.114;18.040;2022-08-01T01:25:46;14.30;99.90
19168;DHT22;9716;53.114;18.040;2022-08-01T01:28:27;14.20;99.90
19168;DHT22;9716;53.114;18.040;2022-08-01T01:31:00;14.20;99.90
19168;DHT22;9716;53.114;18.040;2022-08-01T01:33:30;14.20;99.90
19168;DHT22;9716;53.114;18.040;2022-08-01T01:36:03;14.20;99.90
19168;DHT22;9716;53.114;18.040;2022-08-01T01:38:40;14.10;99.90
19168;DHT22;9716;53.114;18.040;2022-08-01T01:41:11;14.10;99.90
19168;DHT22;9716;53.114;18.040;2022-08-01T01:43:41;14.10;99.90
19168;DHT22;9716;53.114;18.040;2022-08-01T01:46:17;14.10;99.90
19168;DHT22;9716;53.114;18.040;2022-08-01T01:48:46;14.10;99.90
19168;DHT22;9716;53.114;18.040;2022-08-01T01:51:16;14.00;99.90
19168;DHT22;9716;53.114;18.040;2022-08-01T01:53:48;14.00;99.90
19168;DHT22;9716;53.114;18.040;2022-08-01T01:56:19;14.00;99.90
19168;DHT22;9716;53.114;18.040;2022-08-01T01:58:50;14.00;99.90
19168;DHT22;9716;53.114;18.040;2022-08-01T02:01:22;13.90;99.90
19168;DHT22;9716;53.114;18.040;2022-08-01T02:04:12;13.90;99.90
19168;DHT22;9716;53.114;18.040;2022-08-01T02:06:43;13.90;99.90
19168;DHT22;9716;53.114;18.040;2022-08-01T02:09:15;13.90;99.90
19168;DHT22;9716;53.114;18.040;2022-08-01T02:11:46;13.90;99.90
19168;DHT22;9716;53.114;18.040;2022-08-01T02:14:35;13.90;99.90
19168;DHT22;9716;53.114;18.040;2022-08-01T02:17:09;13.90;99.90
19168;DHT22;9716;53.114;18.040;2022-08-01T02:19:38;13.80;99.90
19168;DHT22;9716;53.114;18.040;2022-08-01T02:22:10;13.80;99.90
19168;DHT22;9716;53.114;18.040;2022-08-01T02:24:45;13.80;99.90
19168;DHT22;9716;53.114;18.040;2022-08-01T02:27:20;13.80;99.90
19168;DHT22;9716;53.114;18.040;2022-08-01T02:29:53;13.80;99.90
19168;DHT22;9716;53.114;18.040;2022-08-01T02:32:27;13.80;99.90
19168;DHT22;9716;53.114;18.040;2022-08-01T02:35:00;13.70;99.90
19168;DHT22;9716;53.114;18.040;2022-08-01T02:37:33;13.70;99.90
19168;DHT22;9716;53.114;18.040;2022-08-01T02:40:04;13.70;99.90
19168;DHT22;9716;53.114;18.040;2022-08-01T02:42:42;13.70;99.90
19168;DHT22;9716;53.114;18.040;2022-08-01T02:45:13;13.70;99.90
19168;DHT22;9716;53.114;18.040;2022-08-01T02:47:44;13.70;99.90
19168;DHT22;9716;53.114;18.040;2022-08-01T02:50:14;13.70;99.90
19168;DHT22;9716;53.114;18.040;2022-08-01T02:52:47;13.70;99.90
19168;DHT22;9716;53.114;18.040;2022-08-01T02:55:17;13.70;99.90
19168;DHT22;9716;53.114;18.040;2022-08-01T02:57:47;13.70;99.90
19168;DHT22;9716;53.114;18.040;2022-08-01T03:00:28;13.60;99.90
19168;DHT22;9716;53.114;18.040;2022-08-01T03:03:00;13.70;99.90
19168;DHT22;9716;53.114;18.040;2022-08-01T03:05:31;13.60;99.90
19168;DHT22;9716;53.114;18.040;2022-08-01T03:08:00;13.70;99.90
19168;DHT22;9716;53.114;18.040;2022-08-01T03:10:31;13.70;99.90
19168;DHT22;9716;53.114;18.040;2022-08-01T03:13:01;13.70;99.90
19168;DHT22;9716;53.114;18.040;2022-08-01T03:15:33;13.70;99.90
19168;DHT22;9716;53.114;18.040;2022-08-01T03:18:06;13.80;99.90
19168;DHT22;9716;53.114;18.040;2022-08-01T03:20:36;13.80;99.90
19168;DHT22;9716;53.114;18.040;2022-08-01T03:23:06;13.80;99.90
19168;DHT22;9716;53.114;18.040;2022-08-01T03:25:38;13.90;99.90
19168;DHT22;9716;53.114;18.040;2022-08-01T03:28:10;14.00;99.90
19168;DHT22;9716;53.114;18.040;2022-08-01T03:30:41;14.00;99.90
19168;DHT22;9716;53.114;18.040;2022-08-01T03:33:12;14.10;99.90
19168;DHT22;9716;53.114;18.040;2022-08-01T03:35:46;14.20;99.90
19168;DHT22;9716;53.114;18.040;2022-08-01T03:38:19;14.30;99.90
19168;DHT22;9716;53.114;18.040;2022-08-01T03:40:53;14.40;99.90
19168;DHT22;9716;53.114;18.040;2022-08-01T03:43:26;14.50;99.90
19168;DHT22;9716;53.114;18.040;2022-08-01T03:46:03;14.60;99.90
19168;DHT22;9716;53.114;18.040;2022-08-01T03:48:39;14.70;99.90
19168;DHT22;9716;53.114;18.040;2022-08-01T03:51:09;14.90;99.90
19168;DHT22;9716;53.114;18.040;2022-08-01T03:53:41;15.10;99.90
19168;DHT22;9716;53.114;18.040;2022-08-01T03:56:11;15.30;99.90
19168;DHT22;9716;53.114;18.040;2022-08-01T03:58:42;15.50;99.90
19168;DHT22;9716;53.114;18.040;2022-08-01T04:01:16;15.70;99.90
19168;DHT22;9716;53.114;18.040;2022-08-01T04:03:47;16.00;99.90
19168;DHT22;9716;53.114;18.040;2022-08-01T04:06:17;16.30;99.90
19168;DHT22;9716;53.114;18.040;2022-08-01T04:08:45;16.60;99.90
19168;DHT22;9716;53.114;18.040;2022-08-01T04:11:24;16.80;99.90
19168;DHT22;9716;53.114;18.040;2022-08-01T04:13:53;17.10;99.90
19168;DHT22;9716;53.114;18.040;2022-08-01T04:16:24;17.50;99.90
19168;DHT22;9716;53.114;18.040;2022-08-01T04:18:54;17.80;99.90
19168;DHT22;9716;53.114;18.040;2022-08-01T04:21:25;18.20;99.90
19168;DHT22;9716;53.114;18.040;2022-08-01T04:23:58;18.40;99.90
19168;DHT22;9716;53.114;18.040;2022-08-01T04:26:28;18.70;99.90
19168;DHT22;9716;53.114;18.040;2022-08-01T04:28:58;18.80;99.90
19168;DHT22;9716;53.114;18.040;2022-08-01T04:31:30;18.90;99.90
19168;DHT22;9716;53.114;18.040;2022-08-01T04:34:02;19.00;99.90
19168;DHT22;9716;53.114;18.040;2022-08-01T04:36:34;19.10;99.90
19168;DHT22;9716;53.114;18.040;2022-08-01T04:39:04;19.20;99.90
19168;DHT22;9716;53.114;18.040;2022-08-01T04:41:35;19.30;99.90
19168;DHT22;9716;53.114;18.040;2022-08-01T04:44:04;19.30;99.90
19168;DHT22;9716;53.114;18.040;2022-08-01T04:46:34;19.40;99.90
19168;DHT22;9716;53.114;18.040;2022-08-01T04:49:06;19.50;99.90
19168;DHT22;9716;53.114;18.040;2022-08-01T04:51:36;19.60;99.90
19168;DHT22;9716;53.114;18.040;2022-08-01T04:54:05;19.50;99.90
19168;DHT22;9716;53.114;18.040;2022-08-01T04:56:34;19.50;99.90
19168;DHT22;9716;53.114;18.040;2022-08-01T04:59:03;19.50;99.90
19168;DHT22;9716;53.114;18.040;2022-08-01T05:01:50;19.50;99.90
19168;DHT22;9716;53.114;18.040;2022-08-01T05:04:20;19.30;99.90
19168;DHT22;9716;53.114;18.040;2022-08-01T05:06:49;19.30;99.90
19168;DHT22;9716;53.114;18.040;2022-08-01T05:09:17;19.10;99.90
19168;DHT22;9716;53.114;18.040;2022-08-01T05:11:46;18.90;99.90
19168;DHT22;9716;53.114;18.040;2022-08-01T05:14:14;18.80;99.90
19168;DHT22;9716;53.114;18.040;2022-08-01T05:16:44;18.70;99.90
19168;DHT22;9716;53.114;18.040;2022-08-01T05:19:13;18.60;99.90
19168;DHT22;9716;53.114;18.040;2022-08-01T05:21:43;18.50;99.90
19168;DHT22;9716;53.114;18.040;2022-08-01T05:24:11;18.50;99.90
19168;DHT22;9716;53.114;18.040;2022-08-01T05:26:40;18.40;99.90
19168;DHT22;9716;53.114;18.040;2022-08-01T05:29:10;18.50;99.90
19168;DHT22;9716;53.114;18.040;2022-08-01T05:31:39;18.40;99.90
19168;DHT22;9716;53.114;18.040;2022-08-01T05:34:08;18.50;99.90
19168;DHT22;9716;53.114;18.040;2022-08-01T05:36:43;18.50;99.90
19168;DHT22;9716;53.114;18.040;2022-08-01T05:39:12;18.50;99.90
19168;DHT22;9716;53.114;18.040;2022-08-01T05:41:41;18.50;99.90
19168;DHT22;9716;53.114;18.040;2022-08-01T05:44:10;18.50;99.90
19168;DHT22;9716;53.114;18.040;2022-08-01T05:46:39;18.40;99.90
19168;DHT22;9716;53.114;18.040;2022-08-01T05:49:08;18.40;99.90
19168;DHT22;9716;53.114;18.040;2022-08-01T05:51:36;18.40;99.90
19168;DHT22;9716;53.114;18.040;2022-08-01T05:54:06;18.30;99.90
19168;DHT22;9716;53.114;18.040;2022-08-01T05:56:35;18.30;99.90
19168;DHT22;9716;53.114;18.040;2022-08-01T05:59:03;18.30;99.90
19168;DHT22;9716;53.114;18.040;2022-08-01T06:01:32;18.30;99.90
19168;DHT22;9716;53.114;18.040;2022-08-01T06:04:01;18.30;99.90
19168;DHT22;9716;53.114;18.040;2022-08-01T06:06:29;18.30;99.90
19168;DHT22;9716;53.114;18.040;2022-08-01T06:08:58;18.30;99.90
19168;DHT22;9716;53.114;18.040;2022-08-01T06:11:28;18.30;99.90
19168;DHT22;9716;53.114;18.040;2022-08-01T06:13:57;18.30;99.90
19168;DHT22;9716;53.114;18.040;2022-08-01T06:16:26;18.30;99.90
19168;DHT22;9716;53.114;18.040;2022-08-01T06:18:54;18.30;99.90
19168;DHT22;9716;53.114;18.040;2022-08-01T06:21:23;18.40;99.90
19168;DHT22;9716;53.114;18.040;2022-08-01T06:23:52;18.40;99.90
19168;DHT22;9716;53.114;18.040;2022-08-01T06:26:20;18.40;99.90
19168;DHT22;9716;53.114;18.040;2022-08-01T06:28:50;18.50;99.90
19168;DHT22;9716;53.114;18.040;2022-08-01T06:31:19;18.50;99.90
19168;DHT22;9716;53.114;18.040;2022-08-01T06:33:47;18.50;99.90
19168;DHT22;9716;53.114;18.040;2022-08-01T06:36:16;18.60;99.90
19168;DHT22;9716;53.114;18.040;2022-08-01T06:38:45;18.70;99.90
19168;DHT22;9716;53.114;18.040;2022-08-01T06:41:13;18.80;99.90
19168;DHT22;9716;53.114;18.040;2022-08-01T06:43:42;18.80;99.90
19168;DHT22;9716;53.114;18.040;2022-08-01T06:46:12;19.00;99.90
19168;DHT22;9716;53.114;18.040;2022-08-01T06:48:41;19.10;99.90
19168;DHT22;9716;53.114;18.040;2022-08-01T06:51:09;19.20;99.90
19168;DHT22;9716;53.114;18.040;2022-08-01T06:53:43;19.30;99.90
19168;DHT22;9716;53.114;18.040;2022-08-01T06:56:12;19.50;99.90
19168;DHT22;9716;53.114;18.040;2022-08-01T06:58:41;19.60;99.90
19168;DHT22;9716;53.114;18.040;2022-08-01T07:01:10;19.80;99.90
19168;DHT22;9716;53.114;18.040;2022-08-01T07:03:40;19.90;99.90
19168;DHT22;9716;53.114;18.040;2022-08-01T07:06:22;20.10;99.90
19168;DHT22;9716;53.114;18.040;2022-08-01T07:08:51;20.30;99.90
19168;DHT22;9716;53.114;18.040;2022-08-01T07:11:21;20.50;99.90
19168;DHT22;9716;53.114;18.040;2022-08-01T07:13:50;20.60;99.90
19168;DHT22;9716;53.114;18.040;2022-08-01T07:16:18;20.70;99.90
19168;DHT22;9716;53.114;18.040;2022-08-01T07:18:48;20.80;99.90
19168;DHT22;9716;53.114;18.040;2022-08-01T07:21:18;20.90;99.90
19168;DHT22;9716;53.114;18.040;2022-08-01T07:24:08;20.90;99.90
19168;DHT22;9716;53.114;18.040;2022-08-01T07:26:40;20.90;99.90
19168;DHT22;9716;53.114;18.040;2022-08-01T07:29:22;20.90;99.90
19168;DHT22;9716;53.114;18.040;2022-08-01T07:31:51;20.90;99.90
19168;DHT22;9716;53.114;18.040;2022-08-01T07:34:22;20.90;99.90
19168;DHT22;9716;53.114;18.040;2022-08-01T07:36:52;20.80;99.90
19168;DHT22;9716;53.114;18.040;2022-08-01T07:39:21;20.80;99.90
19168;DHT22;9716;53.114;18.040;2022-08-01T07:41:49;20.70;99.90
19168;DHT22;9716;53.114;18.040;2022-08-01T07:44:34;20.70;99.90
19168;DHT22;9716;53.114;18.040;2022-08-01T07:47:03;20.60;99.90
19168;DHT22;9716;53.114;18.040;2022-08-01T07:49:33;20.70;99.90
19168;DHT22;9716;53.114;18.040;2022-08-01T07:52:07;20.70;99.90
19168;DHT22;9716;53.114;18.040;2022-08-01T07:54:35;20.70;99.90
19168;DHT22;9716;53.114;18.040;2022-08-01T07:57:04;20.70;99.90
19168;DHT22;9716;53.114;18.040;2022-08-01T07:59:34;20.70;99.90
19168;DHT22;9716;53.114;18.040;2022-08-01T08:02:02;20.60;99.90
19168;DHT22;9716;53.114;18.040;2022-08-01T08:04:33;20.60;99.90
19168;DHT22;9716;53.114;18.040;2022-08-01T08:07:02;20.70;99.90
19168;DHT22;9716;53.114;18.040;2022-08-01T08:09:31;20.70;99.90
19168;DHT22;9716;53.114;18.040;2022-08-01T08:12:05;20.80;99.90
19168;DHT22;9716;53.114;18.040;2022-08-01T08:14:34;20.80;99.90
19168;DHT22;9716;53.114;18.040;2022-08-01T08:17:03;20.90;99.90
19168;DHT22;9716;53.114;18.040;2022-08-01T08:19:34;20.90;99.90
19168;DHT22;9716;53.114;18.040;2022-08-01T08:22:06;21.00;99.90
19168;DHT22;9716;53.114;18.040;2022-08-01T08:24:36;21.10;99.90
19168;DHT22;9716;53.114;18.040;2022-08-01T08:27:13;21.30;99.90
19168;DHT22;9716;53.114;18.040;2022-08-01T08:29:42;21.60;99.90
19168;DHT22;9716;53.114;18.040;2022-08-01T08:32:11;21.90;99.90
19168;DHT22;9716;53.114;18.040;2022-08-01T08:34:42;22.00;99.90
19168;DHT22;9716;53.114;18.040;2022-08-01T08:37:10;22.10;99.90
19168;DHT22;9716;53.114;18.040;2022-08-01T08:39:40;22.20;99.90
19168;DHT22;9716;53.114;18.040;2022-08-01T08:42:09;22.30;99.90
19168;DHT22;9716;53.114;18.040;2022-08-01T08:44:39;22.40;99.90
19168;DHT22;9716;53.114;18.040;2022-08-01T08:47:11;22.40;99.90
19168;DHT22;9716;53.114;18.040;2022-08-01T08:49:48;22.50;99.90
19168;DHT22;9716;53.114;18.040;2022-08-01T08:52:19;22.50;99.90
19168;DHT22;9716;53.114;18.040;2022-08-01T08:54:50;22.50;99.90
19168;DHT22;9716;53.114;18.040;2022-08-01T08:57:20;22.60;99.90
19168;DHT22;9716;53.114;18.040;2022-08-01T08:59:49;22.60;99.90
19168;DHT22;9716;53.114;18.040;2022-08-01T09:02:21;22.60;99.90
19168;DHT22;9716;53.114;18.040;2022-08-01T09:04:51;22.60;99.90
19168;DHT22;9716;53.114;18.040;2022-08-01T09:07:20;22.60;99.90
19168;DHT22;9716;53.114;18.040;2022-08-01T09:09:50;22.60;99.90
19168;DHT22;9716;53.114;18.040;2022-08-01T09:12:20;22.60;99.90
19168;DHT22;9716;53.114;18.040;2022-08-01T09:14:48;22.50;99.90
19168;DHT22;9716;53.114;18.040;2022-08-01T09:17:21;22.40;99.90
19168;DHT22;9716;53.114;18.040;2022-08-01T09:19:52;22.40;99.90
19168;DHT22;9716;53.114;18.040;2022-08-01T09:22:24;22.30;99.90
19168;DHT22;9716;53.114;18.040;2022-08-01T09:25:01;22.30;99.90
19168;DHT22;9716;53.114;18.040;2022-08-01T09:27:31;22.30;99.90
19168;DHT22;9716;53.114;18.040;2022-08-01T09:30:11;22.30;99.90
19168;DHT22;9716;53.114;18.040;2022-08-01T09:32:56;22.30;99.90
19168;DHT22;9716;53.114;18.040;2022-08-01T09:35:28;22.30;99.90
19168;DHT22;9716;53.114;18.040;2022-08-01T09:38:16;22.20;99.90
19168;DHT22;9716;53.114;18.040;2022-08-01T09:40:50;22.20;99.90
19168;DHT22;9716;53.114;18.040;2022-08-01T09:43:20;22.20;99.90
19168;DHT22;9716;53.114;18.040;2022-08-01T09:45:49;22.20;99.90
19168;DHT22;9716;53.114;18.040;2022-08-01T09:48:19;22.20;99.90
19168;DHT22;9716;53.114;18.040;2022-08-01T09:50:58;22.20;99.90
19168;DHT22;9716;53.114;18.040;2022-08-01T09:53:44;22.30;99.90
19168;DHT22;9716;53.114;18.040;2022-08-01T09:56:20;22.40;99.90
19168;DHT22;9716;53.114;18.040;2022-08-01T09:58:53;22.50;99.90
19168;DHT22;9716;53.114;18.040;2022-08-01T10:01:39;22.60;99.90
19168;DHT22;9716;53.114;18.040;2022-08-01T10:04:11;22.70;99.90
19168;DHT22;9716;53.114;18.040;2022-08-01T10:06:44;22.80;99.90
19168;DHT22;9716;53.114;18.040;2022-08-01T10:09:26;23.00;99.90
19168;DHT22;9716;53.114;18.040;2022-08-01T10:12:08;23.20;99.90
19168;DHT22;9716;53.114;18.040;2022-08-01T10:14:43;23.40;99.90
19168;DHT22;9716;53.114;18.040;2022-08-01T10:17:18;23.70;99.90
19168;DHT22;9716;53.114;18.040;2022-08-01T10:19:49;23.90;99.90
19168;DHT22;9716;53.114;18.040;2022-08-01T10:22:27;24.20;99.90
19168;DHT22;9716;53.114;18.040;2022-08-01T10:25:03;24.50;99.90
19168;DHT22;9716;53.114;18.040;2022-08-01T10:27:36;24.80;99.90
19168;DHT22;9716;53.114;18.040;2022-08-01T10:30:07;25.10;99.90
19168;DHT22;9716;53.114;18.040;2022-08-01T10:32:51;25.40;99.90
19168;DHT22;9716;53.114;18.040;2022-08-01T10:35:21;25.70;99.90
19168;DHT22;9716;53.114;18.040;2022-08-01T10:38:11;25.80;99.90
19168;DHT22;9716;53.114;18.040;2022-08-01T10:40:41;25.90;99.90
19168;DHT22;9716;53.114;18.040;2022-08-01T10:43:11;25.90;99.90
19168;DHT22;9716;53.114;18.040;2022-08-01T10:45:49;25.90;99.90
19168;DHT22;9716;53.114;18.040;2022-08-01T10:48:24;25.90;99.90
19168;DHT22;9716;53.114;18.040;2022-08-01T10:50:58;26.00;99.90
19168;DHT22;9716;53.114;18.040;2022-08-01T10:53:30;26.10;99.90
19168;DHT22;9716;53.114;18.040;2022-08-01T10:56:09;26.30;99.90
19168;DHT22;9716;53.114;18.040;2022-08-01T10:58:43;26.50;99.90
19168;DHT22;9716;53.114;18.040;2022-08-01T11:01:21;26.70;99.50
19168;DHT22;9716;53.114;18.040;2022-08-01T11:04:03;26.80;99.00
19168;DHT22;9716;53.114;18.040;2022-08-01T11:06:41;27.00;98.70
19168;DHT22;9716;53.114;18.040;2022-08-01T11:09:23;27.20;98.10
19168;DHT22;9716;53.114;18.040;2022-08-01T11:12:06;27.50;97.50
19168;DHT22;9716;53.114;18.040;2022-08-01T11:15:18;27.70;96.80
19168;DHT22;9716;53.114;18.040;2022-08-01T11:17:59;28.00;95.60
19168;DHT22;9716;53.114;18.040;2022-08-01T11:20:30;28.10;94.70
19168;DHT22;9716;53.114;18.040;2022-08-01T11:23:25;28.20;94.50
19168;DHT22;9716;53.114;18.040;2022-08-01T11:26:12;28.30;94.20
19168;DHT22;9716;53.114;18.040;2022-08-01T11:28:46;28.40;93.80
19168;DHT22;9716;53.114;18.040;2022-08-01T11:31:47;28.50;93.50
19168;DHT22;9716;53.114;18.040;2022-08-01T11:34:16;28.60;92.80
19168;DHT22;9716;53.114;18.040;2022-08-01T11:36:46;28.70;92.30
19168;DHT22;9716;53.114;18.040;2022-08-01T11:39:35;28.80;92.10
19168;DHT22;9716;53.114;18.040;2022-08-01T11:42:19;29.10;91.40
19168;DHT22;9716;53.114;18.040;2022-08-01T11:44:49;29.20;91.10
19168;DHT22;9716;53.114;18.040;2022-08-01T11:47:23;29.30;91.00
19168;DHT22;9716;53.114;18.040;2022-08-01T11:50:29;29.30;90.60
19168;DHT22;9716;53.114;18.040;2022-08-01T11:52:59;29.30;89.90
19168;DHT22;9716;53.114;18.040;2022-08-01T11:55:28;29.20;89.40
19168;DHT22;9716;53.114;18.040;2022-08-01T11:58:04;29.10;89.50
19168;DHT22;9716;53.114;18.040;2022-08-01T12:00:50;29.00;89.60
19168;DHT22;9716;53.114;18.040;2022-08-01T12:03:24;28.90;90.00
19168;DHT22;9716;53.114;18.040;2022-08-01T12:06:00;28.70;90.00
19168;DHT22;9716;53.114;18.040;2022-08-01T12:08:30;28.50;90.30
19168;DHT22;9716;53.114;18.040;2022-08-01T12:11:00;28.40;90.60
19168;DHT22;9716;53.114;18.040;2022-08-01T12:13:41;28.20;90.80
19168;DHT22;9716;53.114;18.040;2022-08-01T12:16:11;28.00;90.90
19168;DHT22;9716;53.114;18.040;2022-08-01T12:18:40;27.90;91.00
19168;DHT22;9716;53.114;18.040;2022-08-01T12:21:09;27.90;91.00
19168;DHT22;9716;53.114;18.040;2022-08-01T12:23:37;27.90;91.00
19168;DHT22;9716;53.114;18.040;2022-08-01T12:26:06;27.90;90.90
19168;DHT22;9716;53.114;18.040;2022-08-01T12:28:56;27.90;90.90
19168;DHT22;9716;53.114;18.040;2022-08-01T12:31:32;28.00;90.80
19168;DHT22;9716;53.114;18.040;2022-08-01T12:34:25;28.00;90.40
19168;DHT22;9716;53.114;18.040;2022-08-01T12:36:56;28.10;90.00
19168;DHT22;9716;53.114;18.040;2022-08-01T12:39:31;28.10;89.40
19168;DHT22;9716;53.114;18.040;2022-08-01T12:42:00;28.20;89.20
19168;DHT22;9716;53.114;18.040;2022-08-01T12:44:31;28.20;88.50
19168;DHT22;9716;53.114;18.040;2022-08-01T12:47:00;28.20;88.00
19168;DHT22;9716;53.114;18.040;2022-08-01T12:49:31;28.30;88.00
19168;DHT22;9716;53.114;18.040;2022-08-01T12:52:01;28.20;87.40
19168;DHT22;9716;53.114;18.040;2022-08-01T12:54:29;28.20;87.70
19168;DHT22;9716;53.114;18.040;2022-08-01T12:56:58;28.10;87.90
19168;DHT22;9716;53.114;18.040;2022-08-01T12:59:28;28.20;88.10
19168;DHT22;9716;53.114;18.040;2022-08-01T13:02:08;28.30;88.00
19168;DHT22;9716;53.114;18.040;2022-08-01T13:04:50;28.40;87.80
19168;DHT22;9716;53.114;18.040;2022-08-01T13:07:19;28.40;87.10
19168;DHT22;9716;53.114;18.040;2022-08-01T13:09:51;28.50;87.20
19168;DHT22;9716;53.114;18.040;2022-08-01T13:12:20;28.50;87.20
19168;DHT22;9716;53.114;18.040;2022-08-01T13:14:49;28.60;87.20
19168;DHT22;9716;53.114;18.040;2022-08-01T13:17:31;28.70;86.90
19168;DHT22;9716;53.114;18.040;2022-08-01T13:20:00;28.70;86.30
19168;DHT22;9716;53.114;18.040;2022-08-01T13:22:32;28.70;85.70
19168;DHT22;9716;53.114;18.040;2022-08-01T13:25:12;28.60;85.90
19168;DHT22;9716;53.114;18.040;2022-08-01T13:27:45;28.50;85.60
19168;DHT22;9716;53.114;18.040;2022-08-01T13:30:21;28.40;85.40
19168;DHT22;9716;53.114;18.040;2022-08-01T13:32:58;28.30;86.00
19168;DHT22;9716;53.114;18.040;2022-08-01T13:35:28;28.30;86.20
19168;DHT22;9716;53.114;18.040;2022-08-01T13:37:56;28.30;86.40
19168;DHT22;9716;53.114;18.040;2022-08-01T13:40:26;28.40;86.40
19168;DHT22;9716;53.114;18.040;2022-08-01T13:42:55;28.60;86.00
19168;DHT22;9716;53.114;18.040;2022-08-01T13:45:24;28.80;85.80
19168;DHT22;9716;53.114;18.040;2022-08-01T13:47:52;29.00;85.00
19168;DHT22;9716;53.114;18.040;2022-08-01T13:50:40;29.20;84.70
19168;DHT22;9716;53.114;18.040;2022-08-01T13:53:09;29.30;83.70
19168;DHT22;9716;53.114;18.040;2022-08-01T13:55:38;29.50;83.90
19168;DHT22;9716;53.114;18.040;2022-08-01T13:58:08;29.60;83.50
19168;DHT22;9716;53.114;18.040;2022-08-01T14:00:37;29.60;83.20
19168;DHT22;9716;53.114;18.040;2022-08-01T14:03:05;29.70;83.10
19168;DHT22;9716;53.114;18.040;2022-08-01T14:05:36;29.80;82.90
19168;DHT22;9716;53.114;18.040;2022-08-01T14:08:08;29.80;82.70
19168;DHT22;9716;53.114;18.040;2022-08-01T14:10:37;29.80;82.50
19168;DHT22;9716;53.114;18.040;2022-08-01T14:13:06;29.90;82.20
19168;DHT22;9716;53.114;18.040;2022-08-01T14:15:37;29.90;82.10
19168;DHT22;9716;53.114;18.040;2022-08-01T14:18:10;29.90;81.70
19168;DHT22;9716;53.114;18.040;2022-08-01T14:20:39;29.90;81.50
19168;DHT22;9716;53.114;18.040;2022-08-01T14:23:09;29.90;82.20
19168;DHT22;9716;53.114;18.040;2022-08-01T14:25:39;29.90;80.90
19168;DHT22;9716;53.114;18.040;2022-08-01T14:28:27;29.90;81.20
19168;DHT22;9716;53.114;18.040;2022-08-01T14:30:58;30.00;80.90
19168;DHT22;9716;53.114;18.040;2022-08-01T14:33:27;30.00;80.90
19168;DHT22;9716;53.114;18.040;2022-08-01T14:35:56;30.10;80.70
19168;DHT22;9716;53.114;18.040;2022-08-01T14:38:46;30.10;80.40
19168;DHT22;9716;53.114;18.040;2022-08-01T14:41:15;30.20;80.10
19168;DHT22;9716;53.114;18.040;2022-08-01T14:43:44;30.40;79.50
19168;DHT22;9716;53.114;18.040;2022-08-01T14:46:13;30.50;79.10
19168;DHT22;9716;53.114;18.040;2022-08-01T14:48:42;30.50;78.80
19168;DHT22;9716;53.114;18.040;2022-08-01T14:51:10;30.50;78.80
19168;DHT22;9716;53.114;18.040;2022-08-01T14:53:39;30.50;78.80
19168;DHT22;9716;53.114;18.040;2022-08-01T14:56:18;30.30;78.40
19168;DHT22;9716;53.114;18.040;2022-08-01T14:58:46;30.20;78.80
19168;DHT22;9716;53.114;18.040;2022-08-01T15:01:15;30.00;79.10
19168;DHT22;9716;53.114;18.040;2022-08-01T15:03:45;29.90;79.30
19168;DHT22;9716;53.114;18.040;2022-08-01T15:06:15;29.80;79.50
19168;DHT22;9716;53.114;18.040;2022-08-01T15:08:44;29.80;79.60
19168;DHT22;9716;53.114;18.040;2022-08-01T15:11:12;29.70;79.50
19168;DHT22;9716;53.114;18.040;2022-08-01T15:13:43;29.70;79.60
19168;DHT22;9716;53.114;18.040;2022-08-01T15:16:11;29.70;79.20
19168;DHT22;9716;53.114;18.040;2022-08-01T15:18:40;29.70;79.40
19168;DHT22;9716;53.114;18.040;2022-08-01T15:21:09;29.60;78.60
19168;DHT22;9716;53.114;18.040;2022-08-01T15:23:58;29.50;78.50
19168;DHT22;9716;53.114;18.040;2022-08-01T15:26:26;29.50;78.90
19168;DHT22;9716;53.114;18.040;2022-08-01T15:28:58;29.40;78.90
19168;DHT22;9716;53.114;18.040;2022-08-01T15:31:26;29.40;78.90
19168;DHT22;9716;53.114;18.040;2022-08-01T15:33:55;29.40;79.00
19168;DHT22;9716;53.114;18.040;2022-08-01T15:36:24;29.30;78.90
19168;DHT22;9716;53.114;18.040;2022-08-01T15:38:52;29.30;79.00
19168;DHT22;9716;53.114;18.040;2022-08-01T15:41:22;29.20;78.90
19168;DHT22;9716;53.114;18.040;2022-08-01T15:43:51;29.20;79.10
19168;DHT22;9716;53.114;18.040;2022-08-01T15:46:23;29.10;79.10
19168;DHT22;9716;53.114;18.040;2022-08-01T15:48:52;29.10;79.30
19168;DHT22;9716;53.114;18.040;2022-08-01T15:51:21;29.10;79.10
19168;DHT22;9716;53.114;18.040;2022-08-01T15:53:50;29.10;78.40
19168;DHT22;9716;53.114;18.040;2022-08-01T15:56:19;29.10;78.00
19168;DHT22;9716;53.114;18.040;2022-08-01T15:58:48;29.20;78.50
19168;DHT22;9716;53.114;18.040;2022-08-01T16:01:16;29.10;78.60
19168;DHT22;9716;53.114;18.040;2022-08-01T16:03:47;29.10;78.60